Time;durP1;ratioP1;P1;durP2;ratioP2;P2;SDS_P1;SDS_P2;PMS_P1;PMS_P2;Temp;Humidity;BMP_temperature;BMP_pressure;BME280_temperature;BME280_humidity;BME280_pressure;Samples;Min_cycle;Max_cycle;Signal;HPM_P1;HPM_P2
2023/12/11 00:01:33;;;;;;;;;;;;;;;21.63;37.69;94681.69;10459750;28;2860;-52
2023/12/11 00:06:33;;;;;;;;;;;;;;;21.62;37.53;94674.84;10452565;28;3218;-49
2023/12/11 00:11:33;;;;;;;;;;;;;;;21.61;37.55;94667.25;10463266;28;2829;-50
2023/12/11 00:16:34;;;;;;;;;;;;;;;21.58;37.21;94678.38;10462358;28;2790;-47
2023/12/11 00:21:34;;;;;;;;;;;;;;;21.56;37.31;94677.91;10458724;28;2792;-52
2023/12/11 00:26:34;;;;;;;;;;;;;;;21.54;37.19;94690.63;10460998;28;2931;-51
2023/12/11 00:31:34;;;;;;;;;;;;;;;21.53;37.44;94697.00;10458691;28;2805;-52
2023/12/11 00:36:35;;;;;;;;;;;;;;;21.50;37.08;94692.31;10460533;28;2885;-54
2023/12/11 00:41:37;;;;;;;;;;;;;;;21.48;36.65;94682.09;10459606;28;4990;-50
2023/12/11 00:46:38;;;;;;;;;;;;;;;21.46;36.63;94686.88;10447397;28;2824;-49
2023/12/11 00:51:38;;;;;;;;;;;;;;;21.44;36.70;94698.81;10489465;28;2836;-51
2023/12/11 00:56:38;;;;;;;;;;;;;;;21.42;37.16;94693.84;10461348;28;2791;-51
2023/12/11 01:01:39;;;;;;;;;;;;;;;21.39;36.74;94717.41;10454212;28;2937;-50
2023/12/11 01:06:39;;;;;;;;;;;;;;;21.38;36.66;94721.13;10462001;28;2828;-50
2023/12/11 01:11:39;;;;;;;;;;;;;;;21.35;36.56;94727.75;10455966;28;2875;-48
2023/12/11 01:16:40;;;;;;;;;;;;;;;21.33;36.34;94729.16;10451614;28;2932;-52
2023/12/11 01:21:40;;;;;;;;;;;;;;;21.31;36.09;94737.34;10448400;28;2956;-53
2023/12/11 01:26:40;;;;;;;;;;;;;;;21.31;36.20;94757.69;10452484;28;2849;-53
2023/12/11 01:31:40;;;;;;;;;;;;;;;21.26;36.04;94787.59;10458532;28;2774;-52
2023/12/11 01:36:43;;;;;;;;;;;;;;;21.24;35.70;94776.56;10453696;28;2823;-49
2023/12/11 01:41:43;;;;;;;;;;;;;;;21.22;35.98;94780.56;10459765;28;5094;-53
2023/12/11 01:46:46;;;;;;;;;;;;;;;21.20;35.91;94782.72;10442027;28;2846;-51
2023/12/11 01:51:47;;;;;;;;;;;;;;;21.18;35.90;94769.84;10459441;28;3173;-48
2023/12/11 01:56:47;;;;;;;;;;;;;;;21.15;35.85;94753.84;10463034;28;3088;-52
2023/12/11 02:01:48;;;;;;;;;;;;;;;21.13;35.60;94762.06;10498218;28;2785;-49
2023/12/11 02:06:48;;;;;;;;;;;;;;;21.10;35.69;94760.03;10471415;28;2910;-51
2023/12/11 02:11:48;;;;;;;;;;;;;;;21.06;35.57;94751.94;10457462;28;2851;-51
2023/12/11 02:16:49;;;;;;;;;;;;;;;21.04;35.79;94746.19;10463893;28;2841;-49
2023/12/11 02:21:49;;;;;;;;;;;;;;;21.04;35.76;94788.34;10461570;28;2795;-50
2023/12/11 02:26:49;;;;;;;;;;;;;;;21.02;35.78;94793.13;10461418;28;2843;-50
2023/12/11 02:31:50;;;;;;;;;;;;;;;20.99;35.66;94788.44;10463770;28;2850;-49
2023/12/11 02:36:50;;;;;;;;;;;;;;;20.98;35.51;94770.28;10459282;28;3058;-50
2023/12/11 02:41:50;;;;;;;;;;;;;;;20.96;35.75;94777.72;10488605;28;5028;-49
2023/12/11 02:46:51;;;;;;;;;;;;;;;20.93;35.55;94779.09;10491647;28;2792;-49
2023/12/11 02:51:51;;;;;;;;;;;;;;;20.92;35.19;94790.72;10476847;28;3281;-47
2023/12/11 02:56:51;;;;;;;;;;;;;;;20.91;35.20;94793.66;10456920;28;2767;-51
2023/12/11 03:01:51;;;;;;;;;;;;;;;20.88;35.57;94797.66;10455536;28;2964;-48
2023/12/11 03:06:52;;;;;;;;;;;;;;;20.88;35.37;94818.72;10450478;28;2876;-49
2023/12/11 03:11:54;;;;;;;;;;;;;;;20.85;35.37;94832.50;10457120;28;2829;-48
2023/12/11 03:16:54;;;;;;;;;;;;;;;20.83;35.27;94845.19;10452882;28;2816;-49
2023/12/11 03:21:55;;;;;;;;;;;;;;;20.80;35.42;94852.88;10457042;28;2855;-46
2023/12/11 03:26:55;;;;;;;;;;;;;;;20.79;35.33;94851.34;10456771;28;2957;-46
2023/12/11 03:31:56;;;;;;;;;;;;;;;20.77;35.32;94842.97;10455797;28;2939;-48
2023/12/11 03:36:56;;;;;;;;;;;;;;;20.74;35.35;94843.53;10453251;28;2865;-48
2023/12/11 03:41:56;;;;;;;;;;;;;;;20.73;35.07;94842.00;10447934;28;2866;-50
2023/12/11 03:46:58;;;;;;;;;;;;;;;20.70;35.21;94848.63;10455360;28;2844;-49
2023/12/11 03:51:58;;;;;;;;;;;;;;;20.68;35.03;94845.50;10452163;28;2840;-51
2023/12/11 03:56:58;;;;;;;;;;;;;;;20.66;35.13;94845.03;10454112;28;2862;-46
2023/12/11 04:01:58;;;;;;;;;;;;;;;20.64;35.08;94834.00;10451780;28;3035;-51
2023/12/11 04:06:59;;;;;;;;;;;;;;;20.63;34.83;94837.69;10449860;28;2799;-45
2023/12/11 04:11:59;;;;;;;;;;;;;;;20.61;35.02;94823.28;10451839;28;2886;-49
2023/12/11 04:16:59;;;;;;;;;;;;;;;20.59;34.89;94823.56;10490912;28;2850;-46
2023/12/11 04:22:00;;;;;;;;;;;;;;;20.57;35.21;94815.19;10451767;28;2843;-49
2023/12/11 04:27:00;;;;;;;;;;;;;;;20.55;34.84;94814.69;10451309;28;2908;-48
2023/12/11 04:32:00;;;;;;;;;;;;;;;20.54;34.88;94820.25;10458073;28;2854;-46
2023/12/11 04:37:01;;;;;;;;;;;;;;;20.51;35.01;94823.47;10481836;28;2848;-51
2023/12/11 04:42:01;;;;;;;;;;;;;;;20.49;34.91;94820.34;10447713;28;5089;-51
2023/12/11 04:47:01;;;;;;;;;;;;;;;20.47;34.80;94812.75;10455443;28;2865;-51
2023/12/11 04:52:04;;;;;;;;;;;;;;;20.45;34.84;94799.13;10455504;28;2798;-49
2023/12/11 04:57:04;;;;;;;;;;;;;;;20.42;34.68;94799.72;10449244;28;2910;-48
2023/12/11 05:02:04;;;;;;;;;;;;;;;20.41;34.79;94784.19;10450126;28;2865;-47
2023/12/11 05:07:06;;;;;;;;;;;;;;;20.41;34.81;94766.56;10446121;28;3035;-50
2023/12/11 05:12:06;;;;;;;;;;;;;;;20.43;35.07;94748.63;10454444;28;2870;-50
2023/12/11 05:17:07;;;;;;;;;;;;;;;20.48;34.97;94730.09;10452290;28;3143;-46
2023/12/11 05:22:07;;;;;;;;;;;;;;;20.52;34.81;94715.25;10463119;28;2833;-49
2023/12/11 05:27:08;;;;;;;;;;;;;;;20.61;34.27;94733.78;10450945;28;3280;-49
2023/12/11 05:32:10;;;;;;;;;;;;;;;20.66;34.26;94763.38;10462323;28;2938;-52
2023/12/11 05:37:10;;;;;;;;;;;;;;;20.72;34.25;94783.28;10464542;28;2893;-49
2023/12/11 05:42:10;;;;;;;;;;;;;;;20.77;34.14;94774.47;10460463;28;5228;-51
2023/12/11 05:47:10;;;;;;;;;;;;;;;20.82;33.95;94771.72;10461205;28;2904;-50
2023/12/11 05:52:11;;;;;;;;;;;;;;;20.86;34.02;94776.09;10458246;28;2918;-51
2023/12/11 05:57:11;;;;;;;;;;;;;;;20.89;34.07;94746.53;10461984;28;2930;-49
2023/12/11 06:02:11;;;;;;;;;;;;;;;20.91;33.77;94746.22;10449176;28;3019;-50
2023/12/11 06:07:12;;;;;;;;;;;;;;;20.94;34.01;94740.34;10459231;28;2840;-51
2023/12/11 06:12:12;;;;;;;;;;;;;;;20.96;33.75;94752.16;10463154;28;2840;-47
2023/12/11 06:17:12;;;;;;;;;;;;;;;21.00;33.49;94765.50;10456217;28;2794;-51
2023/12/11 06:22:12;;;;;;;;;;;;;;;21.02;33.74;94763.38;10461847;28;2941;-45
2023/12/11 06:27:13;;;;;;;;;;;;;;;21.04;33.59;94742.78;10458289;28;2875;-53
2023/12/11 06:32:13;;;;;;;;;;;;;;;21.06;33.39;94741.41;10463787;28;2895;-51
2023/12/11 06:37:13;;;;;;;;;;;;;;;21.10;33.35;94717.88;10462617;28;2795;-48
2023/12/11 06:42:14;;;;;;;;;;;;;;;21.11;33.46;94731.81;10463365;28;2799;-51
2023/12/11 06:47:14;;;;;;;;;;;;;;;21.13;33.33;94745.47;10463911;28;2845;-51
2023/12/11 06:52:15;;;;;;;;;;;;;;;21.14;33.05;94745.19;10463633;28;2925;-46
2023/12/11 06:57:15;;;;;;;;;;;;;;;21.16;33.17;94747.50;10465829;28;3314;-47
2023/12/11 07:02:16;;;;;;;;;;;;;;;21.18;33.43;94753.25;10457260;28;2882;-51
2023/12/11 07:07:16;;;;;;;;;;;;;;;21.22;32.99;94727.84;10456862;28;2918;-45
2023/12/11 07:12:17;;;;;;;;;;;;;;;21.22;33.10;94709.41;10453712;28;2843;-46
2023/12/11 07:17:18;;;;;;;;;;;;;;;21.22;33.28;94706.78;10452433;28;2822;-48
2023/12/11 07:22:18;;;;;;;;;;;;;;;21.23;32.94;94710.94;10459351;28;2783;-47
2023/12/11 07:27:18;;;;;;;;;;;;;;;21.23;33.01;94719.66;10463002;28;2875;-51
2023/12/11 07:32:18;;;;;;;;;;;;;;;21.25;33.07;94720.13;10465988;28;2980;-53
2023/12/11 07:37:19;;;;;;;;;;;;;;;21.27;33.46;94712.69;10452681;28;2863;-48
2023/12/11 07:42:19;;;;;;;;;;;;;;;21.27;33.01;94693.47;10454813;28;5085;-51
2023/12/11 07:47:19;;;;;;;;;;;;;;;21.28;33.20;94689.75;10457082;28;2934;-52
2023/12/11 07:52:20;;;;;;;;;;;;;;;21.23;33.14;94687.22;10464863;28;2839;-52
2023/12/11 07:57:20;;;;;;;;;;;;;;;21.28;33.07;94673.94;10459968;28;2879;-50
2023/12/11 08:02:20;;;;;;;;;;;;;;;21.26;32.88;94681.38;10458440;28;3053;-51
2023/12/11 08:07:20;;;;;;;;;;;;;;;21.25;33.05;94682.44;10457721;28;2859;-50
2023/12/11 08:12:21;;;;;;;;;;;;;;;21.27;33.03;94667.88;10455523;28;2823;-49
2023/12/11 08:17:22;;;;;;;;;;;;;;;21.28;32.86;94689.75;10465895;28;2877;-50
2023/12/11 08:22:22;;;;;;;;;;;;;;;21.27;33.22;94659.22;10468352;28;2781;-48
2023/12/11 08:27:23;;;;;;;;;;;;;;;21.27;32.91;94649.44;10461733;28;2799;-50
2023/12/11 08:32:23;;;;;;;;;;;;;;;21.28;33.13;94650.22;10462797;28;2866;-50
2023/12/11 08:37:23;;;;;;;;;;;;;;;21.28;33.17;94631.75;10455729;28;2908;-50
2023/12/11 08:42:23;;;;;;;;;;;;;;;21.29;32.99;94631.44;10454487;28;4805;-48
2023/12/11 08:47:24;;;;;;;;;;;;;;;21.28;32.92;94655.47;10461767;28;2954;-47
2023/12/11 08:52:24;;;;;;;;;;;;;;;21.30;33.21;94655.97;10461721;28;2798;-50
2023/12/11 08:57:24;;;;;;;;;;;;;;;21.30;33.16;94635.66;10456918;28;2802;-46
2023/12/11 09:02:25;;;;;;;;;;;;;;;21.31;33.04;94652.25;10454401;28;2871;-47
2023/12/11 09:07:25;;;;;;;;;;;;;;;21.32;32.80;94659.84;10452978;28;2901;-50
2023/12/11 09:12:25;;;;;;;;;;;;;;;21.32;32.90;94665.13;10459247;28;2930;-49
2023/12/11 09:17:25;;;;;;;;;;;;;;;21.32;32.64;94674.88;10452715;28;2792;-47
2023/12/11 09:22:26;;;;;;;;;;;;;;;21.32;32.64;94693.34;10453001;28;2830;-47
2023/12/11 09:27:26;;;;;;;;;;;;;;;21.31;33.02;94700.47;10450756;28;2844;-48
2023/12/11 09:32:27;;;;;;;;;;;;;;;21.30;32.77;94661.22;10450375;28;2928;-49
2023/12/11 09:37:27;;;;;;;;;;;;;;;21.29;33.11;94707.13;10457981;28;2870;-50
2023/12/11 09:42:27;;;;;;;;;;;;;;;21.28;33.29;94658.13;10459861;28;5157;-48
2023/12/11 09:47:31;;;;;;;;;;;;;;;21.26;33.27;94612.84;10453946;28;2835;-49
2023/12/11 09:52:32;;;;;;;;;;;;;;;21.24;33.46;94623.69;10455490;28;2787;-51
2023/12/11 09:57:32;;;;;;;;;;;;;;;21.25;33.42;94627.88;10448023;28;2796;-48
2023/12/11 10:02:32;;;;;;;;;;;;;;;21.23;33.38;94584.44;10451933;28;2776;-47
2023/12/11 10:07:32;;;;;;;;;;;;;;;21.24;33.55;94625.53;10457254;28;2838;-48
2023/12/11 10:12:40;;;;;;;;;;;;;;;21.25;33.40;94663.97;10457729;28;2890;-51
2023/12/11 10:17:40;;;;;;;;;;;;;;;21.26;33.35;94689.28;10456179;28;2775;-47
2023/12/11 10:22:43;;;;;;;;;;;;;;;21.31;32.87;94695.19;10462072;28;2853;-46
2023/12/11 10:27:43;;;;;;;;;;;;;;;21.31;33.31;94694.44;10489764;28;2882;-48
2023/12/11 10:32:43;;;;;;;;;;;;;;;21.29;33.12;94670.22;10453664;28;2928;-47
2023/12/11 10:37:44;;;;;;;;;;;;;;;21.27;33.40;94673.16;10456551;28;2892;-50
2023/12/11 10:42:44;;;;;;;;;;;;;;;21.26;33.40;94666.34;10454967;28;4932;-51
2023/12/11 10:47:44;;;;;;;;;;;;;;;21.33;33.10;94658.00;10457404;28;3319;-50
2023/12/11 10:52:44;;;;;;;;;;;;;;;21.29;33.45;94646.50;10464304;28;2869;-49
2023/12/11 10:57:45;;;;;;;;;;;;;;;21.30;33.62;94617.19;10490939;28;2907;-51
2023/12/11 11:02:45;;;;;;;;;;;;;;;21.30;33.05;94648.06;10457235;28;2862;-49
2023/12/11 11:07:49;;;;;;;;;;;;;;;21.31;33.27;94658.28;10456197;28;2815;-49
2023/12/11 11:12:59;;;;;;;;;;;;;;;21.30;33.58;94669.91;10460029;28;2818;-49
2023/12/11 11:18:05;;;;;;;;;;;;;;;21.29;33.77;94675.50;10463155;28;3203;-49
2023/12/11 11:23:15;;;;;;;;;;;;;;;21.29;33.90;94670.22;10474188;28;2806;-47
2023/12/11 11:28:34;;;;;;;;;;;;;;;21.32;33.11;94661.69;10459395;28;2776;-46
2023/12/11 11:33:44;;;;;;;;;;;;;;;21.47;34.04;94634.94;10458023;28;2768;-47
2023/12/11 11:38:51;;;;;;;;;;;;;;;21.61;32.99;94603.97;10462571;28;2811;-49
2023/12/11 11:44:04;;;;;;;;;;;;;;;21.78;32.83;94652.22;10459135;28;5042;-46
2023/12/11 11:49:04;;;;;;;;;;;;;;;21.89;32.69;94668.59;10487110;28;2843;-53
2023/12/11 11:54:04;;;;;;;;;;;;;;;21.95;32.89;94650.78;10457117;28;2823;-49
2023/12/11 11:59:05;;;;;;;;;;;;;;;21.98;32.60;94648.28;10461034;28;2873;-51
2023/12/11 12:04:05;;;;;;;;;;;;;;;22.03;32.67;94663.19;10458624;28;3080;-51
2023/12/11 12:09:05;;;;;;;;;;;;;;;22.08;32.63;94663.81;10468609;28;2838;-52
2023/12/11 12:14:11;;;;;;;;;;;;;;;22.15;32.74;94672.06;10449664;28;2870;-50
2023/12/11 12:19:11;;;;;;;;;;;;;;;22.01;32.31;94681.94;10459268;28;2858;-50
2023/12/11 12:24:11;;;;;;;;;;;;;;;21.97;32.31;94665.19;10463671;28;2920;-54
2023/12/11 12:29:12;;;;;;;;;;;;;;;22.08;31.98;94629.50;10455725;28;2854;-50
2023/12/11 12:34:13;;;;;;;;;;;;;;;21.96;32.21;94644.38;10462016;28;2775;-49
2023/12/11 12:39:13;;;;;;;;;;;;;;;21.88;32.13;94648.56;10461474;28;2827;-49
2023/12/11 12:44:14;;;;;;;;;;;;;;;21.82;32.17;94647.94;10454166;28;5034;-48
2023/12/11 12:49:14;;;;;;;;;;;;;;;21.78;31.97;94635.66;10493913;28;2701;-45
2023/12/11 12:54:15;;;;;;;;;;;;;;;21.74;32.15;94640.00;10456906;28;2840;-51
2023/12/11 12:59:15;;;;;;;;;;;;;;;21.67;32.69;94618.56;10460499;28;3243;-45
2023/12/11 13:04:18;;;;;;;;;;;;;;;21.64;32.59;94629.69;10456615;28;2910;-52
2023/12/11 13:09:30;;;;;;;;;;;;;;;21.59;32.76;94638.56;10460476;28;2894;-47
2023/12/11 13:14:30;;;;;;;;;;;;;;;21.57;32.44;94666.31;10467748;28;2879;-47
2023/12/11 13:19:31;;;;;;;;;;;;;;;21.49;33.42;94701.34;10461904;28;2920;-52
2023/12/11 13:24:31;;;;;;;;;;;;;;;21.44;33.85;94689.06;10459529;28;2802;-53
2023/12/11 13:29:32;;;;;;;;;;;;;;;21.42;33.51;94685.16;10452662;28;2855;-50
2023/12/11 13:34:32;;;;;;;;;;;;;;;21.37;33.90;94701.13;10450767;28;2893;-50
2023/12/11 13:39:32;;;;;;;;;;;;;;;21.34;34.18;94707.00;10451332;28;2778;-51
2023/12/11 13:44:32;;;;;;;;;;;;;;;21.31;34.22;94726.81;10459631;28;5011;-48
2023/12/11 13:49:33;;;;;;;;;;;;;;;21.26;34.33;94723.53;10463681;28;2811;-52
2023/12/11 13:54:33;;;;;;;;;;;;;;;21.21;34.77;94726.28;10465032;28;2905;-49
2023/12/11 13:59:33;;;;;;;;;;;;;;;21.18;34.72;94753.25;10455099;28;2854;-50
2023/12/11 14:04:34;;;;;;;;;;;;;;;21.16;34.73;94750.16;10455799;28;2855;-51
2023/12/11 14:09:34;;;;;;;;;;;;;;;21.13;34.95;94761.28;10465994;28;2910;-50
2023/12/11 14:14:36;;;;;;;;;;;;;;;21.09;34.86;94787.47;10461883;28;2903;-52
2023/12/11 14:19:39;;;;;;;;;;;;;;;21.06;35.02;94795.97;10460958;28;2898;-52
2023/12/11 14:24:39;;;;;;;;;;;;;;;21.01;34.95;94786.28;10453602;28;2835;-50
2023/12/11 14:29:40;;;;;;;;;;;;;;;20.98;35.06;94792.16;10459782;28;2803;-51
2023/12/11 14:34:41;;;;;;;;;;;;;;;20.94;35.22;94793.03;10490547;28;2844;-48
2023/12/11 14:39:41;;;;;;;;;;;;;;;20.97;34.84;94797.72;10467818;28;2827;-50
2023/12/11 14:44:42;;;;;;;;;;;;;;;20.94;34.75;94787.75;10455839;28;5070;-48
2023/12/11 14:49:42;;;;;;;;;;;;;;;20.93;35.00;94802.03;10459314;28;2945;-52
2023/12/11 14:54:42;;;;;;;;;;;;;;;20.92;35.08;94818.91;10457227;28;2807;-52
2023/12/11 14:59:43;;;;;;;;;;;;;;;20.89;34.85;94833.47;10463908;28;2892;-51
2023/12/11 15:04:43;;;;;;;;;;;;;;;20.91;35.08;94830.53;10461069;28;2862;-50
2023/12/11 15:09:43;;;;;;;;;;;;;;;20.91;34.85;94828.69;10440803;28;2904;-50
2023/12/11 15:14:44;;;;;;;;;;;;;;;20.93;34.91;94831.78;10461194;28;2882;-49
2023/12/11 15:19:44;;;;;;;;;;;;;;;20.95;34.70;94826.22;10452756;28;3057;-49
2023/12/11 15:24:46;;;;;;;;;;;;;;;20.98;35.06;94822.97;10460593;28;2833;-50
2023/12/11 15:29:46;;;;;;;;;;;;;;;21.01;35.14;94833.72;10458209;28;2924;-52
2023/12/11 15:34:46;;;;;;;;;;;;;;;21.01;34.88;94839.00;10461330;28;2814;-50
2023/12/11 15:39:47;;;;;;;;;;;;;;;21.04;34.86;94838.41;10452087;28;2804;-52
2023/12/11 15:44:48;;;;;;;;;;;;;;;21.05;34.81;94841.81;10449158;28;2865;-49
2023/12/11 15:49:50;;;;;;;;;;;;;;;21.05;34.70;94834.72;10458228;28;2810;-50
2023/12/11 15:54:53;;;;;;;;;;;;;;;21.06;34.80;94843.41;10452256;28;2787;-49
2023/12/11 15:59:53;;;;;;;;;;;;;;;21.08;34.86;94847.28;10464645;28;2859;-50
2023/12/11 16:04:53;;;;;;;;;;;;;;;21.06;34.86;94841.53;10440841;28;2877;-48
2023/12/11 16:09:53;;;;;;;;;;;;;;;21.12;34.58;94849.31;10452510;28;2823;-51
2023/12/11 16:14:54;;;;;;;;;;;;;;;21.11;34.55;94847.75;10451180;28;3201;-48
2023/12/11 16:19:54;;;;;;;;;;;;;;;21.13;34.68;94848.22;10456106;28;2849;-47
2023/12/11 16:24:54;;;;;;;;;;;;;;;21.14;34.40;94860.34;10453829;28;2894;-47
2023/12/11 16:29:54;;;;;;;;;;;;;;;21.14;34.55;94858.50;10447581;28;2991;-50
2023/12/11 16:34:58;;;;;;;;;;;;;;;21.15;34.57;94875.06;10459951;28;3160;-50
2023/12/11 16:39:58;;;;;;;;;;;;;;;21.15;34.87;94869.81;10454931;28;3262;-52
2023/12/11 16:44:58;;;;;;;;;;;;;;;21.16;35.11;94880.06;10452054;28;5066;-51
2023/12/11 16:49:58;;;;;;;;;;;;;;;21.14;34.88;94881.44;10455158;28;2824;-49
2023/12/11 16:55:01;;;;;;;;;;;;;;;21.15;35.07;94890.88;10454399;28;2834;-49
2023/12/11 17:00:02;;;;;;;;;;;;;;;21.16;35.09;94887.19;10451499;28;2807;-52
2023/12/11 17:05:05;;;;;;;;;;;;;;;21.15;34.91;94881.13;10450750;28;2865;-52
2023/12/11 17:10:05;;;;;;;;;;;;;;;21.15;34.68;94870.59;10459568;28;2828;-50
2023/12/11 17:15:06;;;;;;;;;;;;;;;21.16;34.83;94884.53;10455792;28;2788;-51
2023/12/11 17:20:07;;;;;;;;;;;;;;;21.17;34.55;94886.09;10464380;28;2969;-47
2023/12/11 17:25:07;;;;;;;;;;;;;;;21.16;34.52;94887.19;10467828;28;2979;-52
2023/12/11 17:30:08;;;;;;;;;;;;;;;21.13;34.80;94888.56;10468658;28;2912;-50
2023/12/11 17:35:08;;;;;;;;;;;;;;;21.18;34.60;94895.56;10463974;28;2892;-52
2023/12/11 17:40:09;;;;;;;;;;;;;;;21.17;34.92;94884.25;10465067;28;2884;-52
2023/12/11 17:45:09;;;;;;;;;;;;;;;21.17;34.65;94889.50;10466649;28;2812;-49
2023/12/11 17:50:09;;;;;;;;;;;;;;;21.18;34.22;94906.91;10464788;28;2810;-50
2023/12/11 17:55:10;;;;;;;;;;;;;;;21.16;34.29;94895.09;10463765;28;2768;-50
2023/12/11 18:00:11;;;;;;;;;;;;;;;21.17;34.57;94896.63;10462147;28;2935;-49
2023/12/11 18:05:11;;;;;;;;;;;;;;;21.17;34.29;94894.00;10467162;28;2800;-47
2023/12/11 18:10:14;;;;;;;;;;;;;;;21.17;34.49;94894.00;10461537;28;2887;-51
2023/12/11 18:15:15;;;;;;;;;;;;;;;21.17;34.18;94894.00;10463191;28;2861;-50
2023/12/11 18:20:15;;;;;;;;;;;;;;;21.18;34.01;94911.38;10461049;28;2786;-48
2023/12/11 18:25:15;;;;;;;;;;;;;;;21.14;34.10;94916.47;10471177;28;2958;-51
2023/12/11 18:30:16;;;;;;;;;;;;;;;21.16;34.61;94924.88;10454665;28;2936;-49
2023/12/11 18:35:16;;;;;;;;;;;;;;;21.16;34.30;94913.53;10460512;28;2883;-49
2023/12/11 18:40:16;;;;;;;;;;;;;;;21.17;33.30;94925.63;10459556;28;2935;-48
2023/12/11 18:45:17;;;;;;;;;;;;;;;21.20;33.78;94946.13;10455574;28;4921;-48
2023/12/11 18:50:17;;;;;;;;;;;;;;;21.22;33.84;94955.31;10464212;28;3034;-47
2023/12/11 18:55:17;;;;;;;;;;;;;;;21.27;33.56;94951.78;10464757;28;2905;-47
2023/12/11 19:00:18;;;;;;;;;;;;;;;21.31;33.75;94958.03;10461608;28;2870;-49
2023/12/11 19:05:18;;;;;;;;;;;;;;;21.37;33.93;94960.22;10460468;28;2898;-51
2023/12/11 19:10:18;;;;;;;;;;;;;;;21.41;33.93;94955.91;10466611;28;2937;-52
2023/12/11 19:15:21;;;;;;;;;;;;;;;21.45;33.30;94954.25;10465724;28;2845;-50
2023/12/11 19:20:21;;;;;;;;;;;;;;;21.49;33.00;94967.63;10457592;28;2788;-50
2023/12/11 19:25:21;;;;;;;;;;;;;;;21.49;33.24;94959.72;10458590;28;2952;-53
2023/12/11 19:30:23;;;;;;;;;;;;;;;21.54;32.78;94959.59;10453639;28;2846;-52
2023/12/11 19:35:23;;;;;;;;;;;;;;;21.53;32.92;94971.25;10463770;28;2890;-52
2023/12/11 19:40:23;;;;;;;;;;;;;;;21.55;32.59;94982.28;10446519;28;2787;-52
2023/12/11 19:45:24;;;;;;;;;;;;;;;21.54;32.66;94978.06;10460671;28;4845;-50
2023/12/11 19:50:24;;;;;;;;;;;;;;;21.56;33.02;94989.09;10466735;28;2805;-52
2023/12/11 19:55:27;;;;;;;;;;;;;;;21.56;32.98;94981.97;10460076;28;3258;-52
2023/12/11 20:00:27;;;;;;;;;;;;;;;21.57;33.43;94993.31;10464544;28;2786;-53
2023/12/11 20:05:27;;;;;;;;;;;;;;;21.60;32.64;94997.97;10450681;28;2860;-50
2023/12/11 20:10:29;;;;;;;;;;;;;;;21.50;33.08;94998.97;10461303;28;2959;-53
2023/12/11 20:15:32;;;;;;;;;;;;;;;21.47;33.37;94993.53;10445634;28;2930;-54
2023/12/11 20:20:32;;;;;;;;;;;;;;;21.41;33.54;94999.97;10455145;28;2870;-51
2023/12/11 20:25:33;;;;;;;;;;;;;;;21.46;33.58;95013.81;10450637;28;2886;-52
2023/12/11 20:30:33;;;;;;;;;;;;;;;21.47;33.62;95025.94;10452048;28;2834;-49
2023/12/11 20:35:34;;;;;;;;;;;;;;;21.45;33.81;95022.03;10450803;28;2874;-54
2023/12/11 20:40:34;;;;;;;;;;;;;;;21.49;33.52;95033.56;10458674;28;2775;-51
2023/12/11 20:45:35;;;;;;;;;;;;;;;21.51;33.52;95029.56;10455933;28;4994;-52
2023/12/11 20:50:35;;;;;;;;;;;;;;;21.44;33.78;95045.00;10459923;28;2930;-52
2023/12/11 20:55:35;;;;;;;;;;;;;;;21.42;33.65;95044.50;10455200;28;2874;-52
2023/12/11 21:00:36;;;;;;;;;;;;;;;21.37;34.07;95041.19;10462438;28;2930;-47
2023/12/11 21:05:37;;;;;;;;;;;;;;;21.38;34.18;95050.66;10454923;28;2788;-53
2023/12/11 21:10:37;;;;;;;;;;;;;;;21.34;34.06;95052.31;10457240;28;3014;-53
2023/12/11 21:15:39;;;;;;;;;;;;;;;21.35;33.87;95061.81;10453183;28;2906;-52
2023/12/11 21:20:39;;;;;;;;;;;;;;;21.36;33.92;95071.25;10457705;28;2778;-52
2023/12/11 21:25:40;;;;;;;;;;;;;;;21.30;34.53;95089.03;10454560;28;2853;-50
2023/12/11 21:30:40;;;;;;;;;;;;;;;21.28;34.11;95090.41;10458706;28;2849;-49
2023/12/11 21:35:40;;;;;;;;;;;;;;;21.24;34.34;95092.84;10454789;28;2843;-55
2023/12/11 21:40:41;;;;;;;;;;;;;;;21.20;34.37;95097.16;10460577;28;2858;-51
2023/12/11 21:45:41;;;;;;;;;;;;;;;21.17;34.45;95095.09;10457927;28;4905;-53
2023/12/11 21:50:43;;;;;;;;;;;;;;;21.13;34.33;95103.88;10460684;28;2905;-51
2023/12/11 21:55:43;;;;;;;;;;;;;;;21.08;36.20;95113.44;10457677;28;2880;-51
2023/12/11 22:00:43;;;;;;;;;;;;;;;21.02;36.28;95114.59;10450310;28;2922;-52
2023/12/11 22:05:45;;;;;;;;;;;;;;;20.97;36.98;95114.66;10461562;28;2856;-52
2023/12/11 22:10:45;;;;;;;;;;;;;;;20.91;37.12;95117.69;10463832;28;2940;-49
2023/12/11 22:15:45;;;;;;;;;;;;;;;20.86;37.95;95126.44;10466082;28;2921;-49
2023/12/11 22:20:46;;;;;;;;;;;;;;;20.82;37.97;95136.00;10462337;28;3014;-52
2023/12/11 22:25:46;;;;;;;;;;;;;;;20.76;38.26;95139.78;10457325;28;2872;-54
2023/12/11 22:30:47;;;;;;;;;;;;;;;20.77;37.70;95141.34;10459642;28;2949;-54
2023/12/11 22:35:47;;;;;;;;;;;;;;;20.72;38.11;95141.44;10453479;28;2883;-52
2023/12/11 22:40:49;;;;;;;;;;;;;;;20.68;38.50;95153.63;10460257;28;2915;-51
2023/12/11 22:45:49;;;;;;;;;;;;;;;20.67;38.50;95152.03;10459276;28;2855;-52
2023/12/11 22:50:50;;;;;;;;;;;;;;;20.65;38.43;95159.44;10461687;28;2842;-52
2023/12/11 22:55:50;;;;;;;;;;;;;;;20.63;38.56;95148.41;10472790;28;2810;-55
2023/12/11 23:00:51;;;;;;;;;;;;;;;20.60;38.50;95149.00;10461782;28;2949;-52
2023/12/11 23:05:51;;;;;;;;;;;;;;;20.57;38.58;95144.31;10457373;28;2900;-53
2023/12/11 23:10:52;;;;;;;;;;;;;;;20.56;38.30;95145.38;10457678;28;2970;-51
2023/12/11 23:15:52;;;;;;;;;;;;;;;20.54;38.55;95144.09;10457851;28;2795;-52
2023/12/11 23:20:53;;;;;;;;;;;;;;;20.52;38.61;95141.78;10466949;28;2807;-53
2023/12/11 23:25:53;;;;;;;;;;;;;;;20.49;38.62;95131.00;10461983;28;2800;-51
2023/12/11 23:30:53;;;;;;;;;;;;;;;20.46;38.47;95129.75;10457390;28;2907;-53
2023/12/11 23:35:53;;;;;;;;;;;;;;;20.43;38.89;95132.16;10459252;28;2778;-54
2023/12/11 23:40:54;;;;;;;;;;;;;;;20.43;38.37;95124.25;10456185;28;2852;-54
2023/12/11 23:45:54;;;;;;;;;;;;;;;20.40;38.71;95128.28;10462587;28;2831;-53
2023/12/11 23:50:54;;;;;;;;;;;;;;;20.38;38.59;95125.13;10459070;28;3019;-51
2023/12/11 23:55:55;;;;;;;;;;;;;;;20.36;38.87;95134.41;10453392;28;3345;-51
